Villa Alemana, Chile
Current Conditions -  °F | °C
As of 6:00 PM on Saturday 25 Oct 2014 (Local Time) from SCVM Reporting Station
Haze Haze  
Wind Chill: 59°   Ceiling: 700
Heat Index: 59°   Visibility: 2.5mi
Dew Point: 57°   Wind: 15mph
Humidity: 94%   Direction: 300°WNW
Pressure: 29.94"   Gusts: NA
Location:  33.04°S, 71.36°W
Report Text: SCVM 252200Z 30013KT 4000 BR BKN007 15/14 Q1014
Loading
Personal Weather Stations






























Interactive Weather Map
Tropical Storm Tracking
New forecast layout! Learn more

10-Day Weather Forecast

Advertisements
Track Severe Weather on mobile